Time;durP1;ratioP1;P1;durP2;ratioP2;P2;SDS_P1;SDS_P2;PMS_P1;PMS_P2;Temp;Humidity;BMP_temperature;BMP_pressure;BME280_temperature;BME280_humidity;BME280_pressure;Samples;Min_cycle;Max_cycle;Signal;HPM_P1;HPM_P2
2022/12/18 00:00:08;;;;;;;92.10;34.80;;;;;;;-5.19;78.66;100218.15;103213;1295;111759;-68
2022/12/18 00:02:56;;;;;;;86.80;32.70;;;;;;;-5.17;78.74;100220.58;103211;1300;97005;-67
2022/12/18 00:05:24;;;;;;;80.10;31.40;;;;;;;-5.15;78.69;100222.68;103264;1294;107106;-68
2022/12/18 00:07:52;;;;;;;93.10;34.80;;;;;;;-5.14;78.64;100225.98;103206;1300;97964;-68
2022/12/18 00:10:20;;;;;;;83.80;29.40;;;;;;;-5.12;78.64;100232.40;103201;1297;97884;-68
2022/12/18 00:12:48;;;;;;;97.50;34.50;;;;;;;-5.10;78.52;100238.13;103281;1301;111841;-68
2022/12/18 00:15:16;;;;;;;83.30;32.80;;;;;;;-5.10;78.39;100242.97;103297;1288;97926;-68
2022/12/18 00:17:44;;;;;;;97.80;38.80;;;;;;;-5.10;78.53;100244.36;103298;1300;108262;-68
2022/12/18 00:20:12;;;;;;;94.10;36.90;;;;;;;-5.06;78.65;100245.60;103321;1294;97888;-68
2022/12/18 00:22:40;;;;;;;102.90;36.70;;;;;;;-5.04;78.72;100257.20;103349;1295;97877;-69
2022/12/18 00:25:08;;;;;;;89.10;35.50;;;;;;;-5.04;78.49;100257.20;103310;1294;111908;-68
2022/12/18 00:27:36;;;;;;;91.00;32.70;;;;;;;-5.02;78.60;100263.11;103373;1286;95117;-69
2022/12/18 00:30:05;;;;;;;92.50;35.30;;;;;;;-5.00;78.73;100264.51;103276;1300;107880;-69
2022/12/18 00:32:33;;;;;;;89.80;33.50;;;;;;;-5.01;78.73;100268.14;103150;1302;95270;-69
2022/12/18 00:35:01;;;;;;;95.20;35.20;;;;;;;-5.03;78.49;100272.62;103350;1298;97908;-68
2022/12/18 00:37:29;;;;;;;81.70;32.30;;;;;;;-5.01;78.66;100278.35;103314;1295;111702;-69
2022/12/18 00:39:57;;;;;;;89.50;31.90;;;;;;;-4.99;78.55;100282.17;103318;1300;96653;-71
2022/12/18 00:45:12;;;;;;;88.80;34.90;;;;;;;-5.03;78.46;100291.99;103332;1294;97839;-68
2022/12/18 00:47:40;;;;;;;84.10;32.00;;;;;;;-5.02;78.54;100294.08;103358;1295;97941;-69
2022/12/18 00:50:09;;;;;;;80.10;31.10;;;;;;;-5.02;78.63;100296.84;103285;1297;111635;-69
2022/12/18 00:52:40;;;;;;;79.10;32.40;;;;;;;-5.05;78.59;100306.16;103324;1300;97863;-70
2022/12/18 00:55:10;;;;;;;76.00;31.10;;;;;;;-5.07;78.62;100307.52;103325;1301;106561;-69
2022/12/18 00:57:39;;;;;;;76.90;30.90;;;;;;;-5.09;78.53;100315.97;103320;1298;97894;-69
2022/12/18 01:00:12;;;;;;;79.10;29.90;;;;;;;-5.12;78.50;100317.16;103342;1294;97881;-69
2022/12/18 01:02:41;;;;;;;74.50;30.10;;;;;;;-5.15;78.68;100321.27;103264;1304;110788;-69
2022/12/18 01:05:12;;;;;;;74.30;30.80;;;;;;;-5.16;78.65;100328.71;103311;1302;97878;-68
2022/12/18 01:07:41;;;;;;;76.10;29.00;;;;;;;-5.16;78.66;100335.10;103293;1301;106733;-69
2022/12/18 01:10:11;;;;;;;71.70;27.10;;;;;;;-5.16;78.62;100338.21;103302;1294;97951;-69
2022/12/18 01:12:39;;;;;;;68.90;27.40;;;;;;;-5.18;78.61;100341.82;103326;1301;97968;-68
2022/12/18 01:15:11;;;;;;;65.30;26.80;;;;;;;-5.20;78.62;100346.65;103309;1300;111191;-68
2022/12/18 01:17:40;;;;;;;71.20;27.90;;;;;;;-5.24;78.42;100347.79;103289;1297;95135;-69
2022/12/18 01:20:10;;;;;;;69.70;28.70;;;;;;;-5.26;78.54;100356.41;103288;1294;107935;-68
2022/12/18 01:22:38;;;;;;;61.90;25.60;;;;;;;-5.27;78.65;100355.36;103315;1300;95158;-68
2022/12/18 01:25:07;;;;;;;66.40;25.60;;;;;;;-5.28;78.60;100366.24;103318;1295;97969;-68
2022/12/18 01:27:35;;;;;;;56.20;21.70;;;;;;;-5.30;78.53;100372.11;103357;1301;111042;-69
2022/12/18 01:30:04;;;;;;;58.50;24.10;;;;;;;-5.33;78.59;100379.49;103335;1301;97856;-68
2022/12/18 01:32:33;;;;;;;59.40;23.90;;;;;;;-5.37;78.39;100382.20;103303;1298;105420;-69
2022/12/18 01:35:01;;;;;;;58.40;23.50;;;;;;;-5.44;78.23;100381.42;103243;1301;95273;-69
2022/12/18 01:37:29;;;;;;;56.10;22.60;;;;;;;-5.50;78.35;100389.30;103221;1298;96956;-67
2022/12/18 01:39:57;;;;;;;56.40;24.10;;;;;;;-5.51;78.44;100388.94;103310;1287;111910;-70
2022/12/18 01:42:25;;;;;;;58.30;22.20;;;;;;;-5.54;78.38;100387.34;103286;1294;97972;-69
2022/12/18 01:45:05;;;;;;;54.30;21.30;;;;;;;-5.60;78.44;100393.64;103318;1294;107789;-69
2022/12/18 01:47:43;;;;;;;56.60;19.90;;;;;;;-5.66;78.37;100396.67;103200;1291;97872;-69
2022/12/18 01:50:18;;;;;;;64.40;24.90;;;;;;;-5.69;78.46;100397.14;103279;1297;96982;-69
2022/12/18 01:52:49;;;;;;;54.80;22.50;;;;;;;-5.72;78.36;100401.61;103318;1293;111556;-70
2022/12/18 01:55:21;;;;;;;57.10;21.70;;;;;;;-5.73;78.47;100404.19;103380;1293;97827;-69
2022/12/18 01:57:53;;;;;;;58.20;22.10;;;;;;;-5.73;78.52;100404.02;103275;1297;106837;-70
2022/12/18 02:00:23;;;;;;;60.40;21.30;;;;;;;-5.74;78.44;100405.89;103277;1303;97949;-69
2022/12/18 02:02:53;;;;;;;54.40;22.10;;;;;;;-5.73;78.60;100412.65;103323;1295;97884;-69
2022/12/18 02:05:35;;;;;;;53.90;21.10;;;;;;;-5.72;78.48;100412.50;103324;1294;111214;-69
2022/12/18 02:08:26;;;;;;;58.40;20.60;;;;;;;-5.72;78.43;100413.88;103348;1293;95127;-68
2022/12/18 02:11:01;;;;;;;68.30;23.10;;;;;;;-5.72;78.57;100412.49;103314;1293;107963;-68
2022/12/18 02:13:35;;;;;;;62.40;22.40;;;;;;;-5.71;78.51;100414.76;103290;1300;97990;-70
2022/12/18 02:16:16;;;;;;;59.30;21.40;;;;;;;-5.72;78.51;100419.23;103294;1295;97973;-70
2022/12/18 02:18:51;;;;;;;64.50;27.40;;;;;;;-5.76;78.50;100420.71;103241;1295;111155;-69
2022/12/18 02:21:30;;;;;;;60.30;21.30;;;;;;;-5.76;78.39;100420.89;103232;1295;96955;-67
2022/12/18 02:24:29;;;;;;;63.50;24.50;;;;;;;-5.81;78.34;100415.45;103298;1294;106533;-69
2022/12/18 02:27:02;;;;;;;66.60;22.80;;;;;;;-5.84;78.50;100417.48;103233;1297;97998;-69
2022/12/18 02:29:55;;;;;;;58.70;24.10;;;;;;;-5.84;78.55;100416.27;103293;1295;97869;-69
2022/12/18 02:32:30;;;;;;;59.90;20.60;;;;;;;-5.86;78.47;100419.34;103278;1288;111624;-71
2022/12/18 02:35:01;;;;;;;57.10;22.00;;;;;;;-5.85;78.59;100425.42;103308;1295;97980;-72
2022/12/18 02:37:32;;;;;;;51.70;21.30;;;;;;;-5.84;78.53;100431.66;103318;1293;107587;-73
2022/12/18 02:40:03;;;;;;;54.70;20.20;;;;;;;-5.82;78.46;100437.55;103330;1295;97906;-70
2022/12/18 02:42:32;;;;;;;49.00;19.40;;;;;;;-5.79;78.57;100438.98;103314;1300;97847;-70
2022/12/18 02:45:00;;;;;;;55.10;21.70;;;;;;;-5.73;78.70;100444.10;103278;1295;111123;-71
2022/12/18 02:47:32;;;;;;;52.80;17.80;;;;;;;-5.71;78.87;100450.19;103332;1295;97918;-72
2022/12/18 02:50:26;;;;;;;46.80;18.70;;;;;;;-5.67;78.74;100448.33;103285;1298;107624;-70
2022/12/18 02:53:24;;;;;;;49.80;17.90;;;;;;;-5.64;78.72;100449.42;103216;1295;97939;-69
2022/12/18 02:56:33;;;;;;;47.10;17.90;;;;;;;-5.61;78.51;100453.61;103312;1300;97905;-70
2022/12/18 02:59:13;;;;;;;52.20;19.80;;;;;;;-5.63;78.76;100458.94;103274;1297;111785;-70
2022/12/18 03:02:08;;;;;;;46.90;17.90;;;;;;;-5.62;78.71;100459.48;103171;1290;97042;-69
2022/12/18 03:04:43;;;;;;;54.10;18.40;;;;;;;-5.60;78.71;100459.33;103305;1300;107537;-68
2022/12/18 03:07:26;;;;;;;48.10;17.30;;;;;;;-5.61;78.65;100464.50;103277;1295;97899;-69
2022/12/18 03:09:56;;;;;;;48.50;16.50;;;;;;;-5.61;78.64;100466.58;103296;1304;97864;-70
2022/12/18 03:12:32;;;;;;;42.10;15.50;;;;;;;-5.60;78.71;100465.05;103287;1304;111272;-69
2022/12/18 03:15:04;;;;;;;50.00;18.10;;;;;;;-5.61;78.68;100470.02;103279;1299;97875;-69
2022/12/18 03:17:34;;;;;;;45.10;17.10;;;;;;;-5.62;78.63;100470.19;103288;1295;107380;-68
2022/12/18 03:20:14;;;;;;;41.20;16.80;;;;;;;-5.62;78.63;100476.23;103285;1301;97876;-68
2022/12/18 03:22:45;;;;;;;48.60;17.40;;;;;;;-5.61;78.64;100477.30;103099;1296;98028;-70
2022/12/18 03:25:16;;;;;;;44.60;17.80;;;;;;;-5.59;78.67;100487.18;103337;1287;111241;-71
2022/12/18 03:27:51;;;;;;;42.40;17.20;;;;;;;-5.58;78.63;100491.86;103307;1294;97987;-69
2022/12/18 03:30:19;;;;;;;45.50;18.50;;;;;;;-5.57;78.73;100494.47;103242;1297;108081;-69
2022/12/18 03:32:55;;;;;;;43.50;17.90;;;;;;;-5.55;78.63;100498.48;103253;1295;97908;-70
2022/12/18 03:35:33;;;;;;;45.60;17.40;;;;;;;-5.56;78.62;100497.61;103213;1300;98059;-68
2022/12/18 03:38:02;;;;;;;47.50;17.70;;;;;;;-5.54;78.74;100500.56;103243;1294;111168;-68
2022/12/18 03:40:40;;;;;;;43.40;16.80;;;;;;;-5.51;78.60;100501.98;103211;1301;97741;-69
2022/12/18 03:43:20;;;;;;;45.30;17.60;;;;;;;-5.49;78.72;100509.11;103243;1294;108073;-68
2022/12/18 03:45:55;;;;;;;46.90;17.50;;;;;;;-5.48;78.76;100512.76;103211;1294;97951;-68
2022/12/18 03:48:23;;;;;;;46.50;17.00;;;;;;;-5.48;78.65;100522.27;103223;1294;98406;-68
2022/12/18 03:51:01;;;;;;;45.40;18.10;;;;;;;-5.48;78.59;100529.17;103281;1298;111254;-68
2022/12/18 03:53:49;;;;;;;41.00;16.50;;;;;;;-5.50;78.53;100532.61;103273;1287;97878;-68
2022/12/18 03:56:20;;;;;;;40.60;16.10;;;;;;;-5.54;78.53;100531.52;103267;1291;108106;-68
2022/12/18 03:58:50;;;;;;;45.20;17.40;;;;;;;-5.58;78.51;100537.67;103274;1282;97956;-69
2022/12/18 04:01:22;;;;;;;42.00;16.50;;;;;;;-5.62;78.40;100538.29;103317;1295;97871;-69
2022/12/18 04:03:51;;;;;;;34.00;13.40;;;;;;;-5.67;78.42;100545.30;103345;1294;110209;-68
2022/12/18 04:06:20;;;;;;;40.00;16.10;;;;;;;-5.70;78.30;100548.36;103373;1301;97996;-70
2022/12/18 04:08:49;;;;;;;34.30;14.60;;;;;;;-5.73;78.48;100548.13;103204;1301;107665;-69
2022/12/18 04:11:17;;;;;;;37.80;14.50;;;;;;;-5.75;78.33;100553.63;103238;1294;97968;-69
2022/12/18 04:13:45;;;;;;;38.10;15.80;;;;;;;-5.77;78.19;100553.59;103333;1293;97963;-69
2022/12/18 04:16:13;;;;;;;37.10;15.00;;;;;;;-5.79;78.21;100561.33;103013;1296;110446;-70
2022/12/18 04:18:41;;;;;;;42.80;15.90;;;;;;;-5.80;78.31;100560.09;103244;1294;97859;-68
2022/12/18 04:21:10;;;;;;;40.10;15.30;;;;;;;-5.82;78.38;100556.77;103275;1293;107965;-69
2022/12/18 04:23:38;;;;;;;40.00;16.10;;;;;;;-5.88;78.24;100557.36;103087;1294;97780;-69
2022/12/18 04:26:06;;;;;;;39.20;17.50;;;;;;;-5.89;78.15;100565.45;103287;1294;96432;-70
2022/12/18 04:28:34;;;;;;;34.80;14.60;;;;;;;-5.91;78.23;100575.10;103326;1293;111424;-69
2022/12/18 04:31:03;;;;;;;41.70;14.60;;;;;;;-5.92;78.21;100581.48;103304;1294;97883;-70
2022/12/18 04:33:31;;;;;;;36.90;15.00;;;;;;;-5.94;78.14;100583.52;103234;1301;107591;-68
2022/12/18 04:36:00;;;;;;;44.00;18.20;;;;;;;-5.95;78.30;100591.80;103186;1300;97984;-70
2022/12/18 04:38:28;;;;;;;37.80;17.00;;;;;;;-5.94;78.31;100595.43;103188;1300;97873;-68
2022/12/18 04:40:56;;;;;;;45.30;16.60;;;;;;;-5.94;78.31;100599.58;103222;1293;111767;-69
2022/12/18 04:43:24;;;;;;;39.00;14.80;;;;;;;-5.94;78.18;100603.38;103102;1289;98647;-68
2022/12/18 04:45:52;;;;;;;40.50;14.80;;;;;;;-5.94;78.31;100600.27;103094;1294;158475;-69
2022/12/18 04:48:20;;;;;;;37.30;13.90;;;;;;;-5.95;78.26;100603.36;103194;1295;98527;-69
2022/12/18 04:50:48;;;;;;;38.20;14.80;;;;;;;-5.95;78.36;100604.56;103321;1294;97861;-68
2022/12/18 04:53:16;;;;;;;32.40;14.20;;;;;;;-5.94;78.27;100611.33;103294;1304;111756;-68
2022/12/18 04:55:45;;;;;;;38.00;15.40;;;;;;;-5.92;78.36;100618.98;103240;1304;97894;-69
2022/12/18 04:58:13;;;;;;;34.70;15.50;;;;;;;-5.90;78.26;100618.13;103251;1297;107994;-68
2022/12/18 05:00:41;;;;;;;38.40;15.50;;;;;;;-5.90;78.31;100616.92;103265;1294;95205;-68
2022/12/18 05:03:09;;;;;;;39.60;14.90;;;;;;;-5.91;78.37;100617.08;103307;1297;97951;-67
2022/12/18 05:05:37;;;;;;;37.40;13.40;;;;;;;-5.90;78.39;100617.27;103277;1295;111645;-70
2022/12/18 05:08:05;;;;;;;44.10;15.70;;;;;;;-5.88;78.24;100623.02;103235;1297;96350;-68
2022/12/18 05:10:33;;;;;;;35.10;12.90;;;;;;;-5.89;78.14;100629.55;103281;1301;108146;-69
2022/12/18 05:13:05;;;;;;;40.20;16.00;;;;;;;-5.90;78.15;100626.26;103155;1300;98610;-69
2022/12/18 05:15:34;;;;;;;36.40;14.70;;;;;;;-5.92;78.32;100629.51;103163;1297;97930;-69
2022/12/18 05:18:04;;;;;;;34.80;13.80;;;;;;;-5.94;78.26;100626.36;103255;1301;111176;-68
2022/12/18 05:20:32;;;;;;;39.40;15.50;;;;;;;-5.93;78.28;100628.63;103277;1301;97950;-69
2022/12/18 05:23:00;;;;;;;44.10;17.20;;;;;;;-5.90;78.31;100636.60;103189;1295;108412;-69
2022/12/18 05:25:29;;;;;;;41.90;16.60;;;;;;;-5.89;78.34;100646.66;103052;1296;97866;-68
2022/12/18 05:27:57;;;;;;;37.60;14.90;;;;;;;-5.88;78.29;100648.77;103264;1297;95364;-69
2022/12/18 05:30:27;;;;;;;42.20;17.20;;;;;;;-5.85;78.30;100657.45;103234;1296;110803;-67
2022/12/18 05:32:55;;;;;;;39.10;15.70;;;;;;;-5.83;78.16;100659.39;103111;1296;98391;-68
2022/12/18 05:35:24;;;;;;;37.60;15.10;;;;;;;-5.80;78.19;100663.59;103213;1297;107721;-69
2022/12/18 05:37:52;;;;;;;41.90;14.70;;;;;;;-5.78;78.29;100662.95;103270;1297;97985;-69
2022/12/18 05:40:21;;;;;;;40.30;14.80;;;;;;;-5.75;78.18;100669.23;103314;1297;97967;-69
2022/12/18 05:42:49;;;;;;;41.50;17.20;;;;;;;-5.73;78.22;100670.48;103292;1296;111609;-69
2022/12/18 05:45:17;;;;;;;36.70;16.50;;;;;;;-5.73;77.96;100672.55;103172;1302;95172;-70
2022/12/18 05:47:45;;;;;;;40.50;15.00;;;;;;;-5.72;78.07;100673.61;103271;1302;106989;-72
2022/12/18 05:50:13;;;;;;;36.60;13.50;;;;;;;-5.70;78.15;100674.50;103328;1301;97946;-69
2022/12/18 05:52:41;;;;;;;39.40;15.90;;;;;;;-5.68;78.13;100680.42;103337;1294;97986;-69
2022/12/18 05:55:09;;;;;;;35.30;14.40;;;;;;;-5.65;78.31;100679.77;103300;1294;111202;-70
2022/12/18 05:57:37;;;;;;;35.40;14.30;;;;;;;-5.64;78.32;100675.66;103217;1294;95077;-69
2022/12/18 06:00:06;;;;;;;35.60;14.80;;;;;;;-5.63;78.17;100676.20;103279;1298;108140;-69
2022/12/18 06:02:34;;;;;;;35.70;14.30;;;;;;;-5.61;78.13;100681.60;103295;1295;98522;-70
2022/12/18 06:05:03;;;;;;;32.50;14.20;;;;;;;-5.60;78.20;100686.98;103303;1292;97946;-70
2022/12/18 06:07:31;;;;;;;41.10;18.10;;;;;;;-5.60;78.07;100678.67;103104;1288;110496;-69
2022/12/18 06:09:59;;;;;;;40.60;17.10;;;;;;;-5.58;78.37;100685.11;103289;1301;96650;-69
2022/12/18 06:12:27;;;;;;;35.30;14.20;;;;;;;-5.55;78.26;100687.60;103213;1300;108148;-68
2022/12/18 06:14:55;;;;;;;38.50;15.00;;;;;;;-5.50;78.34;100690.61;103238;1300;97894;-68
2022/12/18 06:17:28;;;;;;;36.40;14.60;;;;;;;-5.49;77.96;100693.92;103263;1295;97930;-68
2022/12/18 06:19:57;;;;;;;39.90;16.10;;;;;;;-5.48;78.01;100700.16;103299;1278;111196;-68
2022/12/18 06:22:25;;;;;;;40.10;16.40;;;;;;;-5.45;78.15;100705.06;103183;1296;97964;-69
2022/12/18 06:24:53;;;;;;;38.30;16.10;;;;;;;-5.42;78.31;100711.00;103321;1294;108174;-70
2022/12/18 06:27:21;;;;;;;36.70;15.20;;;;;;;-5.40;78.23;100713.45;103337;1301;96020;-69
2022/12/18 06:29:49;;;;;;;38.80;16.60;;;;;;;-5.36;78.27;100715.77;103321;1295;97902;-75
2022/12/18 06:32:18;;;;;;;34.80;14.90;;;;;;;-5.34;78.12;100721.54;103257;1300;111172;-71
2022/12/18 06:34:45;;;;;;;42.20;15.50;;;;;;;-5.32;78.24;100719.84;103276;1300;98519;-69
2022/12/18 06:37:13;;;;;;;40.30;16.90;;;;;;;-5.32;78.03;100725.02;103300;1301;107165;-71
2022/12/18 06:39:41;;;;;;;38.00;15.20;;;;;;;-5.30;78.30;100725.06;103307;1301;97888;-69
2022/12/18 06:42:09;;;;;;;43.30;17.70;;;;;;;-5.26;78.27;100727.72;103282;1297;97090;-68
2022/12/18 06:44:37;;;;;;;40.40;16.30;;;;;;;-5.22;78.22;100732.30;103234;1295;111156;-68
2022/12/18 06:47:05;;;;;;;39.60;17.20;;;;;;;-5.19;78.27;100731.67;103226;1297;97897;-68
2022/12/18 06:49:33;;;;;;;44.00;18.60;;;;;;;-5.17;78.26;100733.23;103250;1301;108641;-67
2022/12/18 06:52:02;;;;;;;41.10;16.40;;;;;;;-5.17;78.14;100735.33;103284;1300;97883;-71
2022/12/18 06:54:30;;;;;;;44.60;17.50;;;;;;;-5.16;78.05;100738.63;103293;1294;97874;-68
2022/12/18 06:56:58;;;;;;;44.70;19.60;;;;;;;-5.14;78.18;100738.16;103320;1300;110804;-67
2022/12/18 06:59:26;;;;;;;45.90;21.10;;;;;;;-5.09;78.21;100738.06;103267;1298;97998;-68
2022/12/18 07:01:55;;;;;;;44.10;17.30;;;;;;;-5.05;78.08;100746.44;103128;1301;108090;-68
2022/12/18 07:04:28;;;;;;;45.90;19.20;;;;;;;-5.03;78.23;100748.02;103276;1301;97978;-71
2022/12/18 07:06:57;;;;;;;46.50;21.50;;;;;;;-5.02;78.19;100753.59;103331;1301;97950;-68
2022/12/18 07:09:25;;;;;;;40.10;17.40;;;;;;;-4.98;78.18;100761.61;103274;1288;110837;-67
2022/12/18 07:11:53;;;;;;;44.10;19.40;;;;;;;-4.95;78.21;100764.80;103326;1293;98376;-67
2022/12/18 07:14:22;;;;;;;46.20;20.00;;;;;;;-4.92;78.17;100765.20;103913;1301;107492;-66
2022/12/18 07:16:51;;;;;;;40.50;17.10;;;;;;;-4.88;78.24;100770.61;103330;1301;98067;-67
2022/12/18 07:19:19;;;;;;;45.40;18.70;;;;;;;-4.87;78.08;100774.42;103291;1300;97862;-68
2022/12/18 07:21:47;;;;;;;45.10;18.20;;;;;;;-4.86;78.03;100781.56;103304;1288;109638;-68
2022/12/18 07:24:15;;;;;;;46.80;18.50;;;;;;;-4.84;78.08;100780.55;103149;1297;95268;-68
2022/12/18 07:26:45;;;;;;;44.60;19.20;;;;;;;-4.81;77.90;100783.89;103250;1294;107996;-67
2022/12/18 07:29:14;;;;;;;48.50;19.70;;;;;;;-4.78;78.10;100790.02;103261;1301;97983;-67
2022/12/18 07:31:42;;;;;;;47.10;18.60;;;;;;;-4.76;77.99;100792.98;103277;1302;97966;-68
2022/12/18 07:34:15;;;;;;;44.70;18.50;;;;;;;-4.74;78.10;100792.85;103283;1294;110853;-68
2022/12/18 07:36:43;;;;;;;48.10;19.60;;;;;;;-4.72;78.20;100799.11;103277;1294;97886;-67
2022/12/18 07:39:11;;;;;;;49.10;20.80;;;;;;;-4.70;78.16;100797.42;103129;1297;108044;-67
2022/12/18 07:41:45;;;;;;;53.40;20.90;;;;;;;-4.68;77.93;100796.06;103336;1295;98076;-67
2022/12/18 07:44:14;;;;;;;49.70;21.40;;;;;;;-4.65;78.23;100798.89;103359;1303;97854;-66
2022/12/18 07:46:42;;;;;;;46.10;20.70;;;;;;;-4.62;78.14;100803.44;103204;1288;111799;-68
2022/12/18 07:49:10;;;;;;;47.70;19.40;;;;;;;-4.59;78.08;100810.06;103325;1301;96606;-67
2022/12/18 07:51:38;;;;;;;46.90;18.80;;;;;;;-4.59;78.09;100812.31;103282;1293;107412;-68
2022/12/18 07:54:06;;;;;;;52.20;21.50;;;;;;;-4.59;78.16;100814.23;103320;1294;98626;-69
2022/12/18 07:56:34;;;;;;;45.20;18.80;;;;;;;-4.57;78.03;100814.44;103150;1305;97767;-66
2022/12/18 07:59:03;;;;;;;46.70;19.10;;;;;;;-4.54;78.43;100818.64;103318;1295;110531;-68
2022/12/18 08:01:31;;;;;;;49.30;19.00;;;;;;;-4.54;77.86;100820.21;103165;1298;95169;-68
2022/12/18 08:03:59;;;;;;;53.00;21.50;;;;;;;-4.56;77.93;100825.70;103256;1294;108074;-67
2022/12/18 08:06:27;;;;;;;48.00;18.50;;;;;;;-4.58;78.14;100824.46;103229;1300;98515;-71
2022/12/18 08:08:56;;;;;;;49.80;19.30;;;;;;;-4.56;78.18;100828.13;103281;1294;97870;-68
2022/12/18 08:11:26;;;;;;;53.00;20.40;;;;;;;-4.55;78.10;100832.48;103313;1293;111221;-68
2022/12/18 08:13:55;;;;;;;54.90;20.50;;;;;;;-4.54;78.17;100836.83;103325;1301;97910;-68
2022/12/18 08:16:24;;;;;;;53.00;22.60;;;;;;;-4.51;78.42;100837.57;103247;1295;108065;-68
2022/12/18 08:18:54;;;;;;;45.20;19.10;;;;;;;-4.48;78.24;100838.65;103311;1300;97905;-69
2022/12/18 08:21:26;;;;;;;46.10;18.80;;;;;;;-4.45;77.93;100842.67;103238;1298;98613;-69
2022/12/18 08:23:57;;;;;;;46.10;18.70;;;;;;;-4.45;78.04;100847.20;103304;1294;111593;-67
2022/12/18 08:26:28;;;;;;;50.00;20.40;;;;;;;-4.42;78.22;100853.13;103240;1295;95484;-68
2022/12/18 08:28:59;;;;;;;48.70;20.50;;;;;;;-4.41;77.98;100855.73;103212;1298;108037;-70
2022/12/18 08:31:30;;;;;;;45.80;20.40;;;;;;;-4.37;78.20;100860.32;103107;1297;98509;-69
2022/12/18 08:33:58;;;;;;;50.20;20.80;;;;;;;-4.35;78.18;100862.61;103331;1309;97861;-67
2022/12/18 08:36:26;;;;;;;46.10;20.90;;;;;;;-4.32;78.03;100866.47;103248;1301;112343;-69
2022/12/18 08:38:54;;;;;;;46.50;19.50;;;;;;;-4.31;78.30;100869.26;103252;1301;97894;-68
2022/12/18 08:41:23;;;;;;;47.70;19.40;;;;;;;-4.30;78.13;100868.58;103194;1300;108133;-68
2022/12/18 08:46:40;;;;;;;48.40;18.70;;;;;;;-4.26;78.17;100875.22;103257;1300;97863;-68
2022/12/18 08:49:10;;;;;;;46.70;20.20;;;;;;;-4.25;78.48;100877.33;103231;1301;111636;-68
2022/12/18 08:51:39;;;;;;;49.60;19.70;;;;;;;-4.23;78.33;100878.05;103317;1293;97897;-67
2022/12/18 08:54:11;;;;;;;56.20;22.60;;;;;;;-4.25;77.91;100873.34;103345;1294;107483;-67
2022/12/18 08:56:39;;;;;;;53.20;21.80;;;;;;;-4.23;78.07;100876.66;103306;1293;95274;-68
2022/12/18 08:59:09;;;;;;;58.60;23.30;;;;;;;-4.21;78.36;100878.42;103261;1301;97786;-68
2022/12/18 09:01:45;;;;;;;52.70;21.60;;;;;;;-4.19;78.26;100882.79;103291;1293;111269;-68
2022/12/18 09:04:13;;;;;;;54.80;21.30;;;;;;;-4.17;78.11;100881.62;103346;1300;97863;-68
2022/12/18 09:06:42;;;;;;;54.60;23.40;;;;;;;-4.17;78.12;100885.42;103309;1293;108026;-69
2022/12/18 09:09:11;;;;;;;53.10;23.10;;;;;;;-4.13;78.15;100881.84;103290;1301;97994;-68
2022/12/18 09:11:39;;;;;;;51.10;20.80;;;;;;;-4.13;78.32;100883.25;103345;1294;95215;-67
2022/12/18 09:14:08;;;;;;;51.70;23.30;;;;;;;-4.13;78.05;100881.86;103314;1301;111879;-69
2022/12/18 09:16:36;;;;;;;53.10;21.50;;;;;;;-4.12;78.29;100883.96;103151;1301;97540;-69
2022/12/18 09:19:05;;;;;;;57.40;25.10;;;;;;;-4.11;78.34;100882.94;103354;1293;107501;-70
2022/12/18 09:21:35;;;;;;;52.90;21.30;;;;;;;-4.14;78.25;100887.90;103288;1301;98424;-68
2022/12/18 09:24:05;;;;;;;49.30;22.60;;;;;;;-4.16;78.14;100891.69;103316;1294;97967;-67
2022/12/18 09:26:36;;;;;;;60.50;24.30;;;;;;;-4.16;78.06;100896.17;103342;1302;111697;-67
2022/12/18 09:29:07;;;;;;;57.30;23.20;;;;;;;-4.15;78.10;100897.95;103304;1293;97990;-68
2022/12/18 09:31:36;;;;;;;47.80;22.50;;;;;;;-4.15;78.25;100899.86;103238;1300;108090;-68
2022/12/18 09:34:07;;;;;;;53.90;23.40;;;;;;;-4.13;78.12;100897.64;103172;1300;97830;-68
2022/12/18 09:36:35;;;;;;;56.00;23.40;;;;;;;-4.12;78.25;100899.05;103269;1300;95121;-69
2022/12/18 09:39:03;;;;;;;52.70;22.40;;;;;;;-4.09;78.05;100899.08;103221;1295;111383;-69
2022/12/18 09:41:56;;;;;;;56.40;23.70;;;;;;;-4.08;78.24;100897.55;103245;1300;97990;-68
2022/12/18 09:44:41;;;;;;;51.40;22.40;;;;;;;-4.09;78.16;100898.40;103253;1294;108284;-68
2022/12/18 09:47:18;;;;;;;41.90;17.00;;;;;;;-4.08;78.26;100895.29;103216;1295;97879;-68
2022/12/18 09:49:48;;;;;;;;;;;;;;;-4.09;77.95;100899.27;103300;1293;97866;-69
2022/12/18 09:52:33;;;;;;;41.60;18.40;;;;;;;-4.11;78.04;100895.93;103236;1293;111712;-68
2022/12/18 09:55:12;;;;;;;48.40;18.70;;;;;;;-4.09;78.29;100895.80;103277;1300;97876;-68
2022/12/18 09:57:51;;;;;;;44.30;18.90;;;;;;;-4.07;78.10;100895.12;103259;1294;108073;-68
2022/12/18 10:00:22;;;;;;;42.60;19.40;;;;;;;-4.07;78.30;100899.80;103207;1294;97986;-67
2022/12/18 10:02:54;;;;;;;47.40;19.20;;;;;;;-4.08;78.06;100900.82;103317;1294;97887;-67
2022/12/18 10:05:51;;;;;;;41.70;17.30;;;;;;;-4.09;77.93;100902.71;103278;1303;111669;-67
2022/12/18 10:08:43;;;;;;;43.00;18.00;;;;;;;-4.08;77.96;100904.81;103258;1301;97953;-68
2022/12/18 10:11:48;;;;;;;40.50;17.90;;;;;;;-4.05;78.11;100910.23;103273;1288;107495;-68
2022/12/18 10:14:29;;;;;;;36.80;15.60;;;;;;;-4.03;78.14;100907.14;103326;1294;97892;-68
2022/12/18 10:17:24;;;;;;;43.50;17.90;;;;;;;-4.04;77.93;100906.27;103314;1301;97840;-67
2022/12/18 10:20:13;;;;;;;;;;;;;;;-4.02;78.05;100904.21;103245;1303;111535;-67
2022/12/18 10:23:00;;;;;;;45.70;20.20;;;;;;;-4.04;78.04;100910.59;103237;1302;99506;-67
2022/12/18 10:25:38;;;;;;;44.80;18.30;;;;;;;-4.06;77.93;100909.86;103193;1298;108089;-67
2022/12/18 10:28:18;;;;;;;45.90;19.10;;;;;;;-4.05;78.02;100904.33;103229;1293;95264;-67
2022/12/18 10:30:46;;;;;;;45.80;19.20;;;;;;;-4.03;78.03;100909.23;103206;1298;95141;-68
2022/12/18 10:33:19;;;;;;;44.70;19.00;;;;;;;-4.00;78.05;100916.20;103251;1302;112216;-69
2022/12/18 10:35:50;;;;;;;42.80;17.60;;;;;;;-3.98;78.07;100917.80;103215;1300;97879;-68
2022/12/18 10:38:19;;;;;;;42.00;17.40;;;;;;;-3.98;77.90;100917.64;103217;1300;108474;-68
2022/12/18 10:41:15;;;;;;;42.10;17.40;;;;;;;-3.98;77.77;100916.07;103183;1301;97915;-68
2022/12/18 10:43:43;;;;;;;43.90;18.20;;;;;;;-4.03;77.89;100918.41;103200;1287;95129;-68
2022/12/18 10:46:11;;;;;;;48.30;19.60;;;;;;;-4.10;77.67;100915.52;103276;1300;111947;-69
2022/12/18 10:48:39;;;;;;;45.00;19.70;;;;;;;-4.13;77.83;100920.67;103285;1302;97915;-68
2022/12/18 10:51:08;;;;;;;40.40;18.40;;;;;;;-4.13;77.71;100923.27;103210;1295;108140;-68
2022/12/18 10:53:42;;;;;;;47.40;20.40;;;;;;;-4.12;77.79;100920.69;103315;1294;97970;-68
2022/12/18 10:56:11;;;;;;;44.10;20.70;;;;;;;-4.11;77.51;100921.58;103299;1303;97930;-67
2022/12/18 10:58:39;;;;;;;47.10;18.30;;;;;;;-4.09;77.69;100920.05;103212;1296;112094;-68
2022/12/18 11:01:13;;;;;;;43.40;18.00;;;;;;;-4.07;77.72;100921.12;103338;1303;98529;-68
2022/12/18 11:03:43;;;;;;;44.20;17.50;;;;;;;-4.01;77.91;100922.08;103266;1294;107976;-68
2022/12/18 11:06:13;;;;;;;41.50;17.60;;;;;;;-3.96;77.93;100919.91;103272;1296;97994;-68
2022/12/18 11:08:44;;;;;;;43.00;17.40;;;;;;;-3.95;77.93;100917.16;103329;1294;97960;-68
2022/12/18 11:11:21;;;;;;;43.80;17.90;;;;;;;-3.95;77.83;100915.42;103333;1294;111838;-67
2022/12/18 11:14:21;;;;;;;48.80;19.80;;;;;;;-3.93;77.76;100914.92;103339;1286;95189;-67
2022/12/18 11:16:51;;;;;;;39.70;17.10;;;;;;;-3.90;77.59;100917.24;103263;1301;108158;-68
2022/12/18 11:19:41;;;;;;;41.40;17.00;;;;;;;-3.89;77.59;100924.20;103239;1302;97789;-68
2022/12/18 11:22:28;;;;;;;46.30;19.10;;;;;;;-3.87;77.69;100926.30;103325;1295;95539;-68
2022/12/18 11:25:01;;;;;;;43.20;16.90;;;;;;;-3.86;77.68;100925.45;103316;1302;110905;-69